Time;durP1;ratioP1;P1;durP2;ratioP2;P2;SDS_P1;SDS_P2;PMS_P1;PMS_P2;Temp;Humidity;BMP_temperature;BMP_pressure;BME280_temperature;BME280_humidity;BME280_pressure;Samples;Min_cycle;Max_cycle;Signal;HPM_P1;HPM_P2
2023/01/12 00:01:24;;;;;;;1999.90;999.90;;;;;;;6.44;100.00;94684.22;5070395;28;20253;-68
2023/01/12 00:03:50;;;;;;;1999.90;999.90;;;;;;;6.25;100.00;94687.41;5069944;28;20233;-71
2023/01/12 00:06:18;;;;;;;1999.90;999.90;;;;;;;6.24;100.00;94692.03;5069873;28;20460;-67
2023/01/12 00:08:44;;;;;;;1999.90;999.90;;;;;;;6.22;100.00;94701.75;5069792;28;20199;-67
2023/01/12 00:11:10;;;;;;;1999.90;999.90;;;;;;;6.09;100.00;94706.81;5069851;28;20241;-68
2023/01/12 00:13:35;;;;;;;1999.90;999.90;;;;;;;6.04;100.00;94704.50;5069729;28;20185;-68
2023/01/12 00:18:46;;;;;;;1999.90;999.90;;;;;;;5.95;100.00;94716.91;5087333;28;20206;-67
2023/01/12 00:21:12;;;;;;;1999.90;999.90;;;;;;;5.94;100.00;94723.50;5069123;28;20172;-68
2023/01/12 00:23:44;;;;;;;1999.90;999.90;;;;;;;5.91;100.00;94719.63;5069527;28;20470;-68
2023/01/12 00:26:10;;;;;;;1999.90;999.90;;;;;;;5.91;100.00;94719.63;5070003;28;20166;-68
2023/01/12 00:28:36;;;;;;;1999.90;999.90;;;;;;;5.85;100.00;94717.69;5069531;28;20514;-70
2023/01/12 00:31:03;;;;;;;1999.90;999.90;;;;;;;5.74;100.00;94716.91;5069271;28;20216;-70
2023/01/12 00:33:29;;;;;;;1999.90;999.90;;;;;;;5.64;100.00;94717.69;5069790;28;20196;-68
2023/01/12 00:35:54;;;;;;;1999.90;999.90;;;;;;;5.55;100.00;94711.91;5069823;28;20174;-68
2023/01/12 00:38:20;;;;;;;1999.90;999.90;;;;;;;5.48;100.00;94715.38;5069310;28;20198;-69
2023/01/12 00:40:45;;;;;;;1999.90;999.90;;;;;;;5.43;100.00;94706.88;5069805;28;20165;-67
2023/01/12 00:45:55;;;;;;;1999.90;999.90;;;;;;;5.29;100.00;94701.47;5086882;28;20240;-69
2023/01/12 00:48:21;;;;;;;1999.90;999.90;;;;;;;5.25;100.00;94698.72;5068836;28;20223;-70
2023/01/12 00:50:47;;;;;;;1999.90;999.90;;;;;;;5.20;100.00;94687.53;5068647;28;20176;-71
2023/01/12 00:53:12;;;;;;;1999.90;999.90;;;;;;;5.16;100.00;94671.28;5069061;28;20242;-70
2023/01/12 00:55:38;;;;;;;1999.90;999.90;;;;;;;5.12;100.00;94672.44;5069181;28;20406;-71
2023/01/12 00:58:03;;;;;;;1999.90;999.90;;;;;;;5.09;100.00;94657.75;5069330;28;20173;-70
2023/01/12 01:00:29;;;;;;;1999.90;999.90;;;;;;;5.09;100.00;94649.66;5069111;28;20169;-70
2023/01/12 01:02:54;;;;;;;1999.90;999.90;;;;;;;5.08;100.00;94652.72;5069247;28;20189;-69
2023/01/12 01:05:20;;;;;;;1999.90;999.90;;;;;;;5.05;100.00;94654.28;5069334;28;20169;-71
2023/01/12 01:07:46;;;;;;;1999.90;999.90;;;;;;;4.99;100.00;94658.53;5068843;28;20380;-70
2023/01/12 01:10:12;;;;;;;1999.90;999.90;;;;;;;4.97;100.00;94646.53;5068823;28;20174;-71
2023/01/12 01:12:39;;;;;;;1999.90;999.90;;;;;;;4.96;100.00;94651.16;5069035;28;20186;-71
2023/01/12 01:15:05;;;;;;;1999.90;999.90;;;;;;;4.97;100.00;94643.84;5068813;28;20197;-69
2023/01/12 01:17:30;;;;;;;1999.90;999.90;;;;;;;4.93;100.00;94646.56;5068412;28;20176;-70
2023/01/12 01:19:56;;;;;;;1999.90;999.90;;;;;;;4.91;100.00;94626.44;5068570;28;20188;-69
2023/01/12 01:22:21;;;;;;;1999.90;999.90;;;;;;;4.87;100.00;94612.13;5068933;28;20343;-70
2023/01/12 01:24:47;;;;;;;1999.90;999.90;;;;;;;4.83;100.00;94606.75;5068400;28;20188;-69
2023/01/12 01:27:13;;;;;;;1999.90;999.90;;;;;;;4.82;100.00;94607.91;5068191;28;20389;-71
2023/01/12 01:29:38;;;;;;;1999.90;999.90;;;;;;;4.83;100.00;94619.47;5068876;28;20242;-71
2023/01/12 01:32:05;;;;;;;1999.90;999.90;;;;;;;4.79;100.00;94613.28;5067466;28;20173;-72
2023/01/12 01:34:30;;;;;;;1999.90;999.90;;;;;;;4.77;100.00;94615.63;5068209;28;20170;-71
2023/01/12 01:36:56;;;;;;;1999.90;999.90;;;;;;;4.76;100.00;94620.25;5068639;28;20207;-69
2023/01/12 01:39:21;;;;;;;1999.90;999.90;;;;;;;4.76;100.00;94605.94;5068239;28;20169;-70
2023/01/12 01:41:47;;;;;;;1999.90;999.90;;;;;;;4.71;100.00;94611.75;5068015;28;20451;-70
2023/01/12 01:44:30;;;;;;;1999.90;999.90;;;;;;;4.72;100.00;94614.06;5068490;28;20161;-70
2023/01/12 01:47:02;;;;;;;1999.90;999.90;;;;;;;4.69;100.00;94614.06;5067621;28;20209;-71
2023/01/12 01:49:33;;;;;;;1999.90;999.90;;;;;;;4.72;100.00;94613.28;5068337;28;20166;-71
2023/01/12 01:52:31;;;;;;;1999.90;999.90;;;;;;;4.72;100.00;94613.28;5067902;28;20180;-70
2023/01/12 01:55:03;;;;;;;1999.90;999.90;;;;;;;4.69;100.00;94611.34;5067883;28;20249;-71
2023/01/12 01:57:41;;;;;;;1999.90;999.90;;;;;;;4.69;100.00;94597.84;5068016;28;20173;-71
2023/01/12 02:00:09;;;;;;;1999.90;999.90;;;;;;;4.67;100.00;94594.75;5068415;28;20189;-72
2023/01/12 02:02:36;;;;;;;1999.90;999.90;;;;;;;4.67;100.00;94602.88;5050927;28;20184;-71
2023/01/12 02:05:02;;;;;;;1999.90;999.90;;;;;;;4.68;100.00;94612.50;5067687;28;20169;-71
2023/01/12 02:07:27;;;;;;;1999.90;999.90;;;;;;;4.68;100.00;94613.31;5067774;28;20189;-70
2023/01/12 02:09:52;;;;;;;1999.90;999.90;;;;;;;4.67;100.00;94616.38;5068062;28;20181;-70
2023/01/12 02:18:00;;;;;;;1999.90;999.90;;;;;;;4.60;100.00;94640.69;5084967;28;20221;-70
2023/01/12 02:20:32;;;;;;;1999.90;999.90;;;;;;;4.56;100.00;94627.19;5067372;28;20212;-70
2023/01/12 02:23:37;;;;;;;1999.90;999.90;;;;;;;4.52;100.00;94631.03;5067374;28;20180;-70
2023/01/12 02:26:09;;;;;;;1999.90;999.90;;;;;;;4.51;100.00;94624.84;5068075;28;20173;-70
2023/01/12 02:29:06;;;;;;;1999.90;999.90;;;;;;;4.49;100.00;94637.19;5067203;28;20197;-70
2023/01/12 02:31:57;;;;;;;1999.90;999.90;;;;;;;4.46;100.00;94640.66;5067507;28;20583;-70
2023/01/12 02:34:43;;;;;;;1999.90;999.90;;;;;;;4.43;100.00;94655.72;5029365;28;20177;-70
2023/01/12 02:37:47;;;;;;;1999.90;999.90;;;;;;;4.40;100.00;94661.13;5066919;28;20185;-69
2023/01/12 02:40:22;;;;;;;1999.90;999.90;;;;;;;4.37;100.00;94659.94;5067757;28;20184;-68
2023/01/12 02:42:59;;;;;;;1999.90;999.90;;;;;;;4.32;100.00;94664.94;5067273;28;20164;-68
2023/01/12 02:45:44;;;;;;;1999.90;999.90;;;;;;;4.27;100.00;94668.03;5067377;28;20165;-69
2023/01/12 02:48:21;;;;;;;1999.90;999.90;;;;;;;4.25;100.00;94659.50;5067193;28;20473;-69
2023/01/12 02:51:04;;;;;;;1999.90;999.90;;;;;;;4.24;100.00;94674.19;5067093;28;20184;-69
2023/01/12 02:53:51;;;;;;;1999.90;999.90;;;;;;;4.23;100.00;94662.63;5067603;28;20169;-68
2023/01/12 02:56:30;;;;;;;1999.90;999.90;;;;;;;4.25;100.00;94670.31;5067274;28;20169;-69
2023/01/12 02:59:00;;;;;;;1999.90;999.90;;;;;;;4.20;100.00;94670.69;5067532;28;20166;-71
2023/01/12 03:01:28;;;;;;;1999.90;999.90;;;;;;;4.20;100.00;94668.00;5066906;28;20165;-71
2023/01/12 03:03:58;;;;;;;1999.90;999.90;;;;;;;4.17;100.00;94668.75;5067303;28;20169;-71
2023/01/12 03:06:23;;;;;;;1999.90;999.90;;;;;;;4.19;100.00;94669.91;5066975;28;20200;-71
2023/01/12 03:08:51;;;;;;;1999.90;999.90;;;;;;;4.16;100.00;94657.19;5067409;28;20193;-71
2023/01/12 03:11:21;;;;;;;1999.90;999.90;;;;;;;4.16;100.00;94665.28;5067400;28;20165;-71
2023/01/12 03:13:56;;;;;;;1999.90;999.90;;;;;;;4.17;100.00;94655.25;5067497;28;20229;-73
2023/01/12 03:16:25;;;;;;;1999.90;999.90;;;;;;;4.18;100.00;94660.25;5067394;28;20206;-72
2023/01/12 03:19:04;;;;;;;1999.90;999.90;;;;;;;4.21;100.00;94670.31;5067242;28;20161;-73
2023/01/12 03:21:49;;;;;;;1999.90;999.90;;;;;;;4.25;100.00;94664.91;5067403;28;20165;-71
2023/01/12 03:24:20;;;;;;;1999.90;999.90;;;;;;;4.26;100.00;94675.34;5066995;28;20188;-69
2023/01/12 03:26:54;;;;;;;1999.90;999.90;;;;;;;4.28;100.00;94666.84;5067169;28;20172;-70
2023/01/12 03:29:38;;;;;;;1999.90;999.90;;;;;;;4.28;100.00;94669.56;5067412;28;20170;-69
2023/01/12 03:32:05;;;;;;;1999.90;999.90;;;;;;;4.27;100.00;94670.72;5067282;28;20169;-69
2023/01/12 03:34:33;;;;;;;1999.90;999.90;;;;;;;4.25;100.00;94681.13;5066696;28;20173;-69
2023/01/12 03:37:02;;;;;;;1999.90;999.90;;;;;;;4.29;100.00;94676.53;5066632;28;20165;-68
2023/01/12 03:39:33;;;;;;;1999.90;999.90;;;;;;;4.29;100.00;94692.75;5066605;28;20176;-71
2023/01/12 03:42:09;;;;;;;1999.90;999.90;;;;;;;4.27;100.00;94692.34;5067167;28;20197;-73
2023/01/12 03:45:03;;;;;;;1999.90;999.90;;;;;;;4.27;100.00;94695.81;5066871;28;20219;-73
2023/01/12 03:47:32;;;;;;;1999.90;999.90;;;;;;;4.30;100.00;94705.09;5052848;28;20222;-71
2023/01/12 03:50:06;;;;;;;1999.90;999.90;;;;;;;4.26;100.00;94709.72;5063439;28;20166;-71
2023/01/12 03:52:34;;;;;;;1999.90;999.90;;;;;;;4.29;100.00;94720.53;5063669;28;20163;-71
2023/01/12 03:55:02;;;;;;;1999.90;999.90;;;;;;;4.29;100.00;94722.47;5064255;28;20166;-70
2023/01/12 03:57:28;;;;;;;1999.90;999.90;;;;;;;4.27;100.00;94727.47;5066811;28;20181;-72
2023/01/12 03:59:55;;;;;;;1999.90;999.90;;;;;;;4.27;100.00;94733.66;5066716;28;20166;-72
2023/01/12 04:02:21;;;;;;;1999.90;999.90;;;;;;;4.28;100.00;94747.91;5066723;28;20173;-71
2023/01/12 04:04:46;;;;;;;1999.90;999.90;;;;;;;4.25;100.00;94751.38;5067139;28;20198;-72
2023/01/12 04:07:12;;;;;;;1999.90;999.90;;;;;;;4.22;100.00;94762.97;5066663;28;20190;-75
2023/01/12 04:09:37;;;;;;;1999.90;999.90;;;;;;;4.18;100.00;94762.91;5067060;28;20166;-75
2023/01/12 04:12:12;;;;;;;1999.90;999.90;;;;;;;4.16;100.00;94775.25;5067040;28;20166;-75
2023/01/12 04:14:42;;;;;;;1999.90;999.90;;;;;;;4.13;100.00;94773.31;5067303;28;20170;-73
2023/01/12 04:17:10;;;;;;;1999.90;999.90;;;;;;;4.15;100.00;94776.44;5066933;28;20233;-73
2023/01/12 04:19:36;;;;;;;1999.90;999.90;;;;;;;4.13;100.00;94786.81;5066260;28;20224;-69
2023/01/12 04:24:47;;;;;;;1999.90;999.90;;;;;;;4.10;100.00;94803.78;5067268;28;20162;-72
2023/01/12 04:27:13;;;;;;;1999.90;999.90;;;;;;;4.14;100.00;94804.56;5065946;28;20228;-71
2023/01/12 04:29:39;;;;;;;1999.90;999.90;;;;;;;4.17;100.00;94806.53;5066148;28;20169;-71
2023/01/12 04:32:05;;;;;;;1999.90;999.90;;;;;;;4.17;100.00;94811.94;5066359;28;20200;-70
2023/01/12 04:34:30;;;;;;;1999.90;999.90;;;;;;;4.23;100.00;94810.44;5066668;28;20194;-71
2023/01/12 04:36:55;;;;;;;1999.90;999.90;;;;;;;4.25;100.00;94827.81;5066046;28;20445;-73
2023/01/12 04:39:21;;;;;;;1999.90;999.90;;;;;;;4.22;100.00;94838.59;5065953;28;20240;-74
2023/01/12 04:41:46;;;;;;;1999.90;999.90;;;;;;;4.20;100.00;94840.91;5066169;28;20177;-72
2023/01/12 04:44:12;;;;;;;1999.90;999.90;;;;;;;4.22;100.00;94846.72;5065960;28;20166;-72
2023/01/12 04:46:37;;;;;;;1999.90;999.90;;;;;;;4.19;100.00;94855.56;5067202;28;20229;-74
2023/01/12 04:49:02;;;;;;;1999.90;999.90;;;;;;;4.16;100.00;94857.09;5069625;28;20205;-73
2023/01/12 04:51:28;;;;;;;1999.90;999.90;;;;;;;4.16;100.00;94867.13;5069294;28;20183;-73
2023/01/12 04:53:53;;;;;;;1999.90;999.90;;;;;;;4.13;100.00;94889.47;5068787;28;20171;-74
2023/01/12 04:56:19;;;;;;;1999.90;999.90;;;;;;;4.09;100.00;94900.25;5068943;28;20178;-73
2023/01/12 04:58:44;;;;;;;1999.90;999.90;;;;;;;4.08;100.00;94904.09;5069473;28;20189;-74
2023/01/12 05:01:15;;;;;;;1999.90;999.90;;;;;;;4.03;100.00;94911.75;5068688;28;20470;-74
2023/01/12 05:03:41;;;;;;;1999.90;999.90;;;;;;;4.01;100.00;94908.69;5068612;28;20165;-75
2023/01/12 05:06:07;;;;;;;1999.90;999.90;;;;;;;3.99;100.00;94913.66;5069294;28;20172;-76
2023/01/12 05:11:19;;;;;;;1999.90;999.90;;;;;;;3.94;100.00;94930.22;5086528;28;20224;-76
2023/01/12 05:13:45;;;;;;;1999.90;999.90;;;;;;;3.90;100.00;94924.00;5068611;28;20169;-76
2023/01/12 05:16:16;;;;;;;1999.90;999.90;;;;;;;3.91;100.00;94920.16;5068505;28;20173;-75
2023/01/12 05:18:43;;;;;;;1999.90;999.90;;;;;;;3.90;100.00;94924.00;5069366;28;20192;-78
2023/01/12 05:21:12;;;;;;;1999.90;999.90;;;;;;;3.87;100.00;94924.75;5068557;28;20170;-74
2023/01/12 05:23:38;;;;;;;1999.90;999.90;;;;;;;3.88;100.00;94929.00;5068510;28;20208;-73
2023/01/12 05:26:04;;;;;;;1999.90;999.90;;;;;;;3.87;100.00;94925.53;5068325;28;20173;-73
2023/01/12 05:28:31;;;;;;;1999.90;999.90;;;;;;;3.86;100.00;94928.59;5068633;28;20201;-73
2023/01/12 05:31:09;;;;;;;1999.90;999.90;;;;;;;3.85;100.00;94921.66;5068376;28;20173;-74
2023/01/12 05:33:35;;;;;;;1999.90;999.90;;;;;;;3.87;100.00;94919.34;5068812;28;20161;-74
2023/01/12 05:36:05;;;;;;;1999.90;999.90;;;;;;;3.88;100.00;94920.88;5068673;28;20169;-75
2023/01/12 05:38:31;;;;;;;1999.90;999.90;;;;;;;3.89;100.00;94922.47;5068112;28;20169;-75
2023/01/12 05:41:01;;;;;;;1999.90;999.90;;;;;;;3.93;100.00;94936.78;5068836;28;20244;-76
2023/01/12 05:46:15;;;;;;;1999.90;999.90;;;;;;;3.93;100.00;94942.16;5085526;28;20149;-76
2023/01/12 05:48:40;;;;;;;1999.90;999.90;;;;;;;3.88;100.00;94951.38;5067702;28;20227;-75
2023/01/12 05:51:09;;;;;;;1999.90;999.90;;;;;;;3.90;100.00;94957.19;5067890;28;20161;-76
2023/01/12 05:53:34;;;;;;;1999.90;999.90;;;;;;;3.89;100.00;94968.38;5067874;28;20166;-75
2023/01/12 05:56:07;;;;;;;1999.90;999.90;;;;;;;3.91;100.00;94979.56;5067916;28;20161;-76
2023/01/12 05:58:32;;;;;;;1999.90;999.90;;;;;;;3.89;100.00;94981.88;5067886;28;20240;-76
2023/01/12 06:00:58;;;;;;;1999.90;999.90;;;;;;;3.86;100.00;94990.72;5068063;28;20226;-75
2023/01/12 06:03:23;;;;;;;1999.90;999.90;;;;;;;3.87;100.00;94997.66;5067742;28;20189;-74
2023/01/12 06:05:53;;;;;;;1999.90;999.90;;;;;;;3.89;100.00;95004.22;5067487;28;20199;-74
2023/01/12 06:08:18;;;;;;;1999.90;999.90;;;;;;;3.89;100.00;95008.88;5067569;28;20188;-74
2023/01/12 06:10:44;;;;;;;1999.90;999.90;;;;;;;3.90;100.00;95021.22;5067292;28;20189;-75
2023/01/12 06:15:59;;;;;;;1999.90;999.90;;;;;;;3.96;100.00;95041.38;5084885;28;20229;-74
2023/01/12 06:18:24;;;;;;;1999.90;999.90;;;;;;;4.00;100.00;95052.97;5067228;28;20172;-74
2023/01/12 06:20:49;;;;;;;1999.90;999.90;;;;;;;4.01;100.00;95076.13;5067295;28;20205;-75
2023/01/12 06:23:15;;;;;;;1999.90;999.90;;;;;;;4.02;100.00;95088.47;5067442;28;20208;-74
2023/01/12 06:25:41;;;;;;;1999.90;999.90;;;;;;;4.05;100.00;95098.56;5067239;28;20207;-74
2023/01/12 06:28:06;;;;;;;1999.90;999.90;;;;;;;4.07;100.00;95101.69;5067148;28;20223;-74
2023/01/12 06:30:32;;;;;;;1999.90;999.90;;;;;;;4.16;100.00;95121.06;5067216;28;20169;-71
2023/01/12 06:33:01;;;;;;;1999.90;999.90;;;;;;;4.18;100.00;95140.41;5067644;28;20169;-70
2023/01/12 06:35:26;;;;;;;1999.90;999.90;;;;;;;4.18;100.00;95151.97;5067619;28;20189;-72
2023/01/12 06:37:56;;;;;;;1999.90;999.90;;;;;;;4.24;100.00;95160.53;5066802;28;20184;-71
2023/01/12 06:40:21;;;;;;;1999.90;999.90;;;;;;;4.35;100.00;95178.44;5067648;28;20173;-71
2023/01/12 06:42:46;;;;;;;1999.90;999.90;;;;;;;4.39;100.00;95211.69;5066981;28;20166;-71
2023/01/12 06:45:11;;;;;;;1999.90;999.90;;;;;;;4.47;100.00;95226.84;5066999;28;20165;-71
2023/01/12 06:47:45;;;;;;;1999.90;999.90;;;;;;;4.51;100.00;95251.22;5066716;28;20228;-69
2023/01/12 06:50:10;;;;;;;1999.90;999.90;;;;;;;4.57;100.00;95282.97;5067015;28;20193;-69
2023/01/12 06:52:36;;;;;;;1999.90;999.90;;;;;;;4.61;100.00;95305.41;5067010;28;20161;-68
2023/01/12 06:55:02;;;;;;;1999.90;999.90;;;;;;;4.74;100.00;95320.25;5066901;28;20166;-68
2023/01/12 06:57:27;;;;;;;1999.90;999.90;;;;;;;4.85;100.00;95355.56;5066917;28;20363;-69
2023/01/12 06:59:52;;;;;;;1999.90;999.90;;;;;;;4.96;100.00;95378.13;5066916;28;20168;-67
2023/01/12 07:02:18;;;;;;;1999.90;999.90;;;;;;;5.08;100.00;95405.72;5067164;28;20212;-68
2023/01/12 07:04:43;;;;;;;1999.90;999.90;;;;;;;5.11;100.00;95425.84;5068096;28;20241;-79
2023/01/12 07:07:09;;;;;;;1999.90;999.90;;;;;;;5.23;100.00;95455.38;5067069;28;20165;-76
2023/01/12 07:09:35;;;;;;;1999.90;999.90;;;;;;;5.33;100.00;95466.38;5066884;28;20165;-74
2023/01/12 07:12:01;;;;;;;1999.90;999.90;;;;;;;5.47;100.00;95476.59;5066754;28;20161;-76
2023/01/12 07:14:27;;;;;;;1999.90;999.90;;;;;;;5.82;100.00;95490.56;5067147;28;20193;-75
2023/01/12 07:16:52;;;;;;;1999.90;999.90;;;;;;;6.09;100.00;95524.56;5067296;28;20178;-76
2023/01/12 07:19:17;;;;;;;1999.90;999.90;;;;;;;6.25;100.00;95522.41;5066997;28;20186;-67
2023/01/12 07:21:43;;;;;;;1999.90;999.90;;;;;;;6.08;100.00;95545.47;5066624;28;20217;-78
2023/01/12 07:24:09;;;;;;;1999.90;999.90;;;;;;;5.92;100.00;95550.31;5066518;28;20254;-78
2023/01/12 07:26:34;;;;;;;1999.90;999.90;;;;;;;5.79;100.00;95548.19;5067201;28;20171;-74
2023/01/12 07:29:00;;;;;;;1999.90;999.90;;;;;;;5.70;100.00;95550.38;5066398;28;20223;-76
2023/01/12 07:31:25;;;;;;;1999.90;999.90;;;;;;;5.65;100.00;95550.72;5070046;28;20171;-75
2023/01/12 07:33:52;;;;;;;1999.90;999.90;;;;;;;5.66;100.00;95544.16;5070957;28;20192;-79
2023/01/12 07:36:18;;;;;;;1999.90;999.90;;;;;;;5.69;100.00;95543.41;5070307;28;20175;-77
2023/01/12 07:38:43;;;;;;;1999.90;999.90;;;;;;;5.72;100.00;95537.25;5070890;28;20162;-76
2023/01/12 07:42:22;;;;;;;1999.90;999.90;;;;;;;5.75;100.00;95544.63;5070186;28;20174;-77
2023/01/12 07:43:56;;;;;;;1999.90;999.90;;;;;;;5.80;100.00;95550.50;5088043;28;20162;-78
2023/01/12 07:46:22;;;;;;;1999.90;999.90;;;;;;;5.81;100.00;95556.75;5070664;28;20167;-74
2023/01/12 07:48:47;;;;;;;1999.90;999.90;;;;;;;5.88;100.00;95552.22;5070082;28;20222;-75
2023/01/12 07:51:13;;;;;;;1999.90;999.90;;;;;;;5.94;100.00;95568.91;5070715;28;20198;-76
2023/01/12 07:53:38;;;;;;;1999.90;999.90;;;;;;;6.00;100.00;95567.44;5070286;28;20241;-74
2023/01/12 07:56:04;;;;;;;1999.90;999.90;;;;;;;6.10;100.00;95569.50;5070418;28;20197;-74
2023/01/12 07:58:32;;;;;;;1999.90;999.90;;;;;;;6.11;100.00;95579.97;5069932;28;20171;-74
2023/01/12 08:00:58;;;;;;;1999.90;999.90;;;;;;;6.19;100.00;95562.63;5069864;28;20161;-73
2023/01/12 08:03:24;;;;;;;1999.90;999.90;;;;;;;6.27;100.00;95569.69;5069714;28;20174;-72
2023/01/12 08:05:49;;;;;;;1999.90;999.90;;;;;;;6.28;100.00;95565.84;5069704;28;20161;-72
2023/01/12 08:08:14;;;;;;;1999.90;999.90;;;;;;;6.33;100.00;95572.84;5069643;28;20198;-72
2023/01/12 08:10:42;;;;;;;1999.90;999.90;;;;;;;6.43;100.00;95575.69;5070061;28;20170;-73
2023/01/12 08:13:08;;;;;;;1999.90;999.90;;;;;;;6.57;100.00;95566.91;5069851;28;20190;-71
2023/01/12 08:15:40;;;;;;;1999.90;999.90;;;;;;;6.76;100.00;95580.25;5069622;28;20173;-73
2023/01/12 08:18:13;;;;;;;1999.90;999.90;;;;;;;7.07;100.00;95577.03;5070247;28;20176;-72
2023/01/12 08:20:39;;;;;;;1999.90;999.90;;;;;;;7.48;100.00;95572.28;5069629;28;20224;-71
2023/01/12 08:23:26;;;;;;;1999.90;999.90;;;;;;;7.83;100.00;95578.69;5069478;28;20168;-70
2023/01/12 08:25:57;;;;;;;1999.90;999.90;;;;;;;8.61;100.00;95585.25;5069702;28;20172;-75
2023/01/12 08:28:30;;;;;;;1999.90;999.90;;;;;;;9.47;100.00;95591.91;5069946;28;20272;-71
2023/01/12 08:30:55;;;;;;;1999.90;999.90;;;;;;;10.28;100.00;95599.16;5069967;28;20372;-71
2023/01/12 08:33:22;;;;;;;1999.90;999.90;;;;;;;10.61;100.00;95593.97;5069878;28;20179;-72
2023/01/12 08:35:48;;;;;;;1999.90;999.90;;;;;;;10.95;100.00;95603.13;5069238;28;20477;-71
2023/01/12 08:38:14;;;;;;;1999.90;999.90;;;;;;;10.61;100.00;95607.59;5070054;28;20170;-71
2023/01/12 08:46:07;;;;;;;1999.90;999.90;;;;;;;10.03;100.00;95597.25;5086694;28;20161;-69
2023/01/12 08:48:36;;;;;;;1999.90;999.90;;;;;;;9.94;100.00;95605.09;5068739;28;20218;-71
2023/01/12 08:51:03;;;;;;;1999.90;999.90;;;;;;;9.53;100.00;95604.00;5068983;28;20171;-70
2023/01/12 08:53:28;;;;;;;1999.90;999.90;;;;;;;9.19;100.00;95605.56;5068910;28;20194;-73
2023/01/12 08:55:54;;;;;;;1999.90;999.90;;;;;;;9.00;100.00;95616.81;5069402;28;20168;-74
2023/01/12 08:58:19;;;;;;;1999.90;999.90;;;;;;;8.92;100.00;95611.72;5068883;28;20170;-76
2023/01/12 09:00:45;;;;;;;1999.90;999.90;;;;;;;8.78;100.00;95607.06;5068877;28;20168;-74
2023/01/12 09:03:10;;;;;;;1999.90;999.90;;;;;;;8.79;100.00;95608.63;5068834;28;20167;-76
2023/01/12 09:05:35;;;;;;;1999.90;999.90;;;;;;;8.73;100.00;95604.72;5068816;28;20252;-73
2023/01/12 09:08:00;;;;;;;1999.90;999.90;;;;;;;8.58;100.00;95608.56;5068600;28;20193;-74
2023/01/12 09:10:26;;;;;;;1999.90;999.90;;;;;;;8.70;100.00;95594.59;5068603;28;20165;-72
2023/01/12 09:12:51;;;;;;;1999.90;999.90;;;;;;;8.81;100.00;95597.31;5068446;28;20168;-72
2023/01/12 09:15:16;;;;;;;1999.90;999.90;;;;;;;8.94;100.00;95593.88;5068851;28;20170;-72
2023/01/12 09:17:43;;;;;;;1999.90;999.90;;;;;;;9.06;100.00;95607.09;5069031;28;20171;-67
2023/01/12 09:20:09;;;;;;;1999.90;999.90;;;;;;;9.00;100.00;95608.66;5068795;28;20264;-67
2023/01/12 09:22:35;;;;;;;1999.90;999.90;;;;;;;8.94;100.00;95615.66;5068963;28;20165;-70
2023/01/12 09:25:00;;;;;;;1999.90;999.90;;;;;;;8.91;100.00;95612.91;5068269;28;20177;-65
2023/01/12 09:27:26;;;;;;;1999.90;999.90;;;;;;;8.92;100.00;95617.97;5068213;28;20192;-65
2023/01/12 09:29:51;;;;;;;1999.90;999.90;;;;;;;8.98;100.00;95615.66;5068179;28;20175;-64
2023/01/12 09:32:17;;;;;;;1999.90;999.90;;;;;;;8.95;100.00;95611.75;5068341;28;20172;-65
2023/01/12 09:34:42;;;;;;;1999.90;999.90;;;;;;;9.13;100.00;95612.56;5068160;28;20172;-68
2023/01/12 09:37:08;;;;;;;1999.90;999.90;;;;;;;9.11;100.00;95609.44;5068368;28;20251;-69
2023/01/12 09:39:33;;;;;;;1999.90;999.90;;;;;;;9.14;100.00;95616.84;5068014;28;20199;-68
2023/01/12 09:47:46;;;;;;;1999.90;999.90;;;;;;;9.34;100.00;95618.03;5085730;28;20335;-66
2023/01/12 09:50:27;;;;;;;1999.90;999.90;;;;;;;9.34;100.00;95618.03;5068351;28;20170;-65
2023/01/12 09:53:02;;;;;;;1999.90;999.90;;;;;;;9.35;100.00;95613.34;5067428;28;20219;-65
2023/01/12 09:55:51;;;;;;;1999.90;999.90;;;;;;;9.46;100.00;95631.25;5068318;28;20381;-64
2023/01/12 09:58:22;;;;;;;1999.90;999.90;;;;;;;9.41;100.00;95623.47;5068199;28;20212;-65
2023/01/12 10:00:56;;;;;;;1999.90;999.90;;;;;;;9.35;100.00;95622.28;5068267;28;20181;-68
2023/01/12 10:03:34;;;;;;;1999.90;999.90;;;;;;;9.33;100.00;95619.16;5068144;28;20168;-76
2023/01/12 10:06:00;;;;;;;1999.90;999.90;;;;;;;9.30;100.00;95616.47;5068291;28;20165;-72
2023/01/12 10:08:33;;;;;;;1999.90;999.90;;;;;;;9.27;100.00;95618.03;5067985;28;20207;-70
2023/01/12 10:11:04;;;;;;;1999.90;999.90;;;;;;;9.20;100.00;95618.00;5067835;28;20169;-71
2023/01/12 10:13:41;;;;;;;1999.90;999.90;;;;;;;9.26;100.00;95611.00;5067674;28;20180;-69
2023/01/12 10:16:17;;;;;;;1999.90;999.90;;;;;;;9.35;100.00;95597.78;5067217;28;20188;-66
2023/01/12 10:18:46;;;;;;;1999.90;999.90;;;;;;;9.42;100.00;95592.31;5067854;28;20157;-66
2023/01/12 10:21:11;;;;;;;1999.90;999.90;;;;;;;9.43;100.00;95582.19;5067052;28;20165;-66
2023/01/12 10:23:37;;;;;;;1999.90;999.90;;;;;;;9.30;100.00;95579.09;5067741;28;20169;-66
2023/01/12 10:26:20;;;;;;;1999.90;999.90;;;;;;;9.22;100.00;95582.97;5066909;28;20180;-68
2023/01/12 10:28:47;;;;;;;1999.90;999.90;;;;;;;9.32;100.00;95581.41;5066981;28;20244;-68
2023/01/12 10:31:19;;;;;;;1999.90;999.90;;;;;;;9.48;100.00;95593.47;5067594;28;20182;-72
2023/01/12 10:34:02;;;;;;;1999.90;999.90;;;;;;;9.65;100.00;95587.22;5067551;28;20173;-69
2023/01/12 10:36:29;;;;;;;1999.90;999.90;;;;;;;9.76;100.00;95573.56;5067546;28;20176;-71
2023/01/12 10:38:58;;;;;;;1999.90;999.90;;;;;;;9.79;100.00;95576.28;5067355;28;20193;-71
2023/01/12 10:41:25;;;;;;;1999.90;999.90;;;;;;;9.93;100.00;95562.63;5067089;28;20169;-69
2023/01/12 10:43:54;;;;;;;1999.90;999.90;;;;;;;9.91;100.00;95553.28;5067015;28;20170;-71
2023/01/12 10:46:22;;;;;;;1999.90;999.90;;;;;;;10.02;100.00;95565.69;5067105;28;20174;-69
2023/01/12 10:48:49;;;;;;;1999.90;999.90;;;;;;;10.03;100.00;95566.50;5067288;28;20473;-69
2023/01/12 10:51:25;;;;;;;1999.90;999.90;;;;;;;10.06;100.00;95566.50;5067423;28;20191;-70
2023/01/12 10:53:57;;;;;;;1999.90;999.90;;;;;;;10.09;100.00;95551.28;5067509;28;20241;-70
2023/01/12 10:56:26;;;;;;;1999.90;999.90;;;;;;;10.18;100.00;95534.47;5067200;28;20196;-69
2023/01/12 10:59:06;;;;;;;1999.90;999.90;;;;;;;10.27;100.00;95537.56;5066743;28;20170;-70
2023/01/12 11:01:46;;;;;;;1999.90;999.90;;;;;;;10.37;100.00;95537.50;5067392;28;20472;-69
2023/01/12 11:04:14;;;;;;;1999.90;999.90;;;;;;;10.47;100.00;95541.34;5068927;28;20167;-68
2023/01/12 11:06:45;;;;;;;1999.90;999.90;;;;;;;10.51;100.00;95536.66;5071120;28;20202;-69
2023/01/12 11:09:24;;;;;;;1999.90;999.90;;;;;;;10.37;100.00;95525.84;5070844;28;20207;-69
2023/01/12 11:11:56;;;;;;;1999.90;999.90;;;;;;;10.35;100.00;95523.50;5071279;28;20174;-69
2023/01/12 11:14:27;;;;;;;1999.90;999.90;;;;;;;10.35;100.00;95533.63;5070708;28;20179;-69
2023/01/12 11:17:03;;;;;;;1999.90;999.90;;;;;;;10.44;100.00;95531.22;5071320;28;20372;-70
2023/01/12 11:19:33;;;;;;;1999.90;999.90;;;;;;;10.50;100.00;95524.19;5070977;28;20231;-69
2023/01/12 11:22:09;;;;;;;1999.90;999.90;;;;;;;10.47;100.00;95530.44;5070652;28;20169;-69
2023/01/12 11:24:46;;;;;;;1999.90;999.90;;;;;;;10.46;100.00;95517.97;5071147;28;20171;-70
2023/01/12 11:27:20;;;;;;;1999.90;999.90;;;;;;;10.41;100.00;95519.16;5071033;28;20174;-69
2023/01/12 11:29:51;;;;;;;1999.90;999.90;;;;;;;10.39;100.00;95534.38;5071080;28;20199;-65
2023/01/12 11:32:38;;;;;;;1999.90;999.90;;;;;;;10.45;100.00;95530.06;5071147;28;20207;-65
2023/01/12 11:35:41;;;;;;;1999.90;999.90;;;;;;;10.41;100.00;95524.63;5070415;28;20347;-64
2023/01/12 11:38:19;;;;;;;1999.90;999.90;;;;;;;10.54;100.00;95522.22;5071217;28;20180;-64